SBPV/PVH METAR and TAF weather

Enter ICAO airport designator
Station Type Date Time Source
SBPV METAR 2019/10/15 19:00 UTC NOAA

SBPV 151900Z 22002KT 9999 SCT035 FEW040TCU 33/22 Q1009


Station Type Date Time Source
SBPV Decoded METAR 2019/10/15 19:00 UTC NOAA

Porto Velho Aeroporto , Brazil (SBPV) 08-46S 063-55W 102M
Oct 15, 2019 - 03:00 PM EDT / 2019.10.15 1900 UTC
Wind: from the SW (220 degrees) at 2 MPH (2 KT):0
Visibility: greater than 7 mile(s):0
Sky conditions: partly cloudy
Weather: Towering cumulus clouds observed
Temperature: 91 F (33 C)
Heat index: 97.5 F (36.4 C):1
Dew Point: 71 F (22 C)
Relative Humidity: 52%
Pressure (altimeter): 29.80 in. Hg (1009 hPa)
ob: SBPV 151900Z 22002KT 9999 SCT035 FEW040TCU 33/22 Q1009
cycle: 19

Station Type Date Time Source
SBPV TAF 2019/10/15 18:05 UTC NOAA

TAF SBPV 151500Z 1518/1618 21005KT 9999 SCT035 FEW040TCU TN23/1608Z TX30/1618Z PROB40 1519/1523 4000 TSRA SCT030 FEW035CB
BECMG 1600/1602 05005KT FEW030 FEW035TCU
BECMG 1606/1608 00000KT
BECMG 1609/1611 32004KT
RMK PGU

Example: see airport list